This is the latest recevied weather packets stored in our database for station/object JG6YCL-13. If no packets are shown the sender has not sent any weather packets the latest 1 day(s).
| Time | Temp. | Humidity | Pressure | Rain* | Wind** | Luminosity | Snow |
|---|---|---|---|---|---|---|---|
| 1778107568 | 18.89° C | 77% | 1003.6 hPa | - | - | - | - |
| 1778106965 | 18.89° C | 79% | 1003.5 hPa | - | - | - | - |
| 1778106665 | 18.33° C | 80% | 1003.5 hPa | - | - | - | - |
| 1778105763 | 18.33° C | 80% | 1003.4 hPa | - | - | - | - |
| 1778103355 | 17.22° C | 85% | 1003.6 hPa | - | - | - | - |
| 1778102753 | 16.67° C | 85% | 1003.5 hPa | - | - | - | - |
| 1778101547 | 16.67° C | 85% | 1003.5 hPa | - | - | - | - |
| 1778100644 | 16.11° C | 86% | 1003.5 hPa | - | - | - | - |
| 1778097643 | 16.11° C | 85% | 1003.6 hPa | - | - | - | - |
| 1778097350 | 16.11° C | 85% | 1003.5 hPa | - | - | - | - |
| 1778097048 | 16.11° C | 85% | 1003.5 hPa | - | - | - | - |
| 1778096737 | 16.11° C | 85% | 1003.5 hPa | - | - | - | - |
| 1778093120 | 16.11° C | 84% | 1003.2 hPa | - | - | - | - |
| 1778092824 | 16.11° C | 84% | 1003.4 hPa | - | - | - | - |
| 1778091917 | 16.11° C | 83% | 1003.4 hPa | - | - | - | - |
| 1778090412 | 16.67° C | 81% | 1003.6 hPa | - | - | - | - |
| 1778089810 | 16.67° C | 81% | 1003.7 hPa | - | - | - | - |
| 1778089515 | 16.67° C | 80% | 1003.8 hPa | - | - | - | - |
| 1778087704 | 17.22° C | 81% | 1003.8 hPa | - | - | - | - |
| 1778084692 | 17.22° C | 79% | 1004.2 hPa | - | - | - | - |
| 1778082585 | 17.78° C | 78% | 1004.5 hPa | - | - | - | - |
| 1778081982 | 17.78° C | 78% | 1004.6 hPa | - | - | - | - |
| 1778081683 | 17.78° C | 79% | 1004.6 hPa | - | - | - | - |
| 1778080478 | 17.78° C | 77% | 1004.5 hPa | - | - | - | - |
| 1778079875 | 17.78° C | 76% | 1004.5 hPa | - | - | - | - |
* Rain since midnight (hover to see other rain measurements)
** Current wind speed in m/s (hover to see current wind gust speed)